Time;durP1;ratioP1;P1;durP2;ratioP2;P2;SDS_P1;SDS_P2;PMS_P1;PMS_P2;Temp;Humidity;BMP_temperature;BMP_pressure;BME280_temperature;BME280_humidity;BME280_pressure;Samples;Min_cycle;Max_cycle;Signal;HPM_P1;HPM_P2
2023/06/30 00:00:57;;;;;;;24.50;18.40;;;;;;;17.47;100.00;100505.59;4841637;29;20655;-81
2023/06/30 00:03:24;;;;;;;26.23;18.58;;;;;;;17.48;100.00;100500.28;4841637;29;20504;-87
2023/06/30 00:05:51;;;;;;;29.13;19.50;;;;;;;17.48;100.00;100502.91;4850299;29;20046;-81
2023/06/30 00:08:17;;;;;;;25.98;18.33;;;;;;;17.47;100.00;100500.31;4861571;29;20052;-82
2023/06/30 00:10:43;;;;;;;28.35;18.30;;;;;;;17.48;100.00;100507.34;4864170;29;20037;-83
2023/06/30 00:13:10;;;;;;;27.35;18.63;;;;;;;17.52;100.00;100506.28;4873832;29;20065;-94
2023/06/30 00:15:36;;;;;;;30.02;19.98;;;;;;;17.53;100.00;100503.59;4896307;29;20065;-86
2023/06/30 00:18:03;;;;;;;30.52;20.23;;;;;;;17.51;100.00;100499.28;4846304;29;20478;-82
2023/06/30 00:20:30;;;;;;;30.45;20.60;;;;;;;17.50;100.00;100500.22;4866953;29;20159;-79
2023/06/30 00:22:56;;;;;;;33.30;19.65;;;;;;;17.46;100.00;100486.22;4849335;29;20056;-80
2023/06/30 00:25:23;;;;;;;32.25;19.08;;;;;;;17.44;100.00;100488.09;4861370;29;20050;-81
2023/06/30 00:27:49;;;;;;;31.90;20.70;;;;;;;17.42;100.00;100486.44;4858707;29;20037;-84
2023/06/30 00:30:16;;;;;;;33.03;21.13;;;;;;;17.38;100.00;100483.03;4863510;29;20081;-81
2023/06/30 00:32:42;;;;;;;33.08;21.80;;;;;;;17.39;100.00;100486.53;4849301;29;20048;-83
2023/06/30 00:35:09;;;;;;;28.92;20.52;;;;;;;17.38;100.00;100487.44;4862110;29;20150;-83
2023/06/30 00:37:35;;;;;;;28.02;19.20;;;;;;;17.38;100.00;100490.09;4858735;29;20488;-84
2023/06/30 00:40:02;;;;;;;29.00;20.42;;;;;;;17.39;100.00;100490.06;4860927;29;20043;-82
2023/06/30 00:42:28;;;;;;;33.33;23.30;;;;;;;17.41;100.00;100480.25;4846139;29;20053;-84
2023/06/30 00:44:55;;;;;;;29.80;20.95;;;;;;;17.43;100.00;100489.00;4845129;29;20049;-80
2023/06/30 00:47:22;;;;;;;34.92;22.95;;;;;;;17.46;100.00;100485.38;4849787;29;20477;-83
2023/06/30 00:49:49;;;;;;;33.95;21.95;;;;;;;17.45;100.00;100473.91;4849302;29;20045;-80
2023/06/30 00:52:15;;;;;;;32.17;22.30;;;;;;;17.45;100.00;100476.56;4850893;29;20061;-82
2023/06/30 00:54:42;;;;;;;35.25;22.58;;;;;;;17.46;100.00;100486.22;4864523;29;20041;-85
2023/06/30 00:57:08;;;;;;;30.55;22.30;;;;;;;17.48;100.00;100470.28;4856711;29;20033;-81
2023/06/30 00:59:35;;;;;;;36.83;24.65;;;;;;;17.47;100.00;100466.78;4874374;29;20047;-84
2023/06/30 01:02:17;;;;;;;40.22;23.40;;;;;;;17.46;100.00;100470.34;4860339;29;20072;-84
2023/06/30 01:04:56;;;;;;;33.28;20.95;;;;;;;17.48;100.00;100465.88;4863700;29;20068;-86
2023/06/30 01:07:44;;;;;;;37.60;23.85;;;;;;;17.47;100.00;100464.16;4877625;29;20052;-83
2023/06/30 01:10:22;;;;;;;40.00;23.85;;;;;;;17.48;100.00;100468.53;4886183;29;20115;-81
2023/06/30 01:12:49;;;;;;;40.40;23.35;;;;;;;17.51;100.00;100463.09;4863363;29;20045;-83
2023/06/30 01:15:17;;;;;;;31.88;22.65;;;;;;;17.55;100.00;100468.25;4862630;29;20049;-82
2023/06/30 01:17:49;;;;;;;33.92;23.17;;;;;;;17.55;100.00;100462.94;4852955;29;20055;-85
2023/06/30 01:20:19;;;;;;;41.33;25.80;;;;;;;17.56;100.00;100464.69;4859887;29;20061;-81
2023/06/30 01:23:01;;;;;;;37.38;24.98;;;;;;;17.57;100.00;100471.69;4863284;29;20447;-84
2023/06/30 01:25:30;;;;;;;40.17;24.70;;;;;;;17.56;100.00;100478.78;4861885;29;20041;-82
2023/06/30 01:27:58;;;;;;;35.78;21.67;;;;;;;17.55;100.00;100482.34;4840311;29;20057;-82
2023/06/30 01:30:29;;;;;;;42.38;25.15;;;;;;;17.59;100.00;100481.31;4867005;29;20051;-83
2023/06/30 01:32:58;;;;;;;42.35;24.88;;;;;;;17.61;100.00;100473.28;4884409;29;20500;-82
2023/06/30 01:35:28;;;;;;;36.63;23.67;;;;;;;17.64;100.00;100474.03;4856534;29;20040;-84
2023/06/30 01:37:57;;;;;;;33.70;23.58;;;;;;;17.63;100.00;100471.47;4868697;29;20045;-81
2023/06/30 01:40:24;;;;;;;36.67;23.80;;;;;;;17.64;100.00;100479.34;4857518;29;20056;-80
2023/06/30 01:42:58;;;;;;;39.90;23.55;;;;;;;17.65;100.00;100480.19;4858095;29;20096;-80
2023/06/30 01:45:26;;;;;;;36.90;24.98;;;;;;;17.63;100.00;100477.59;4862239;29;20041;-81
2023/06/30 01:47:54;;;;;;;36.15;23.73;;;;;;;17.62;100.00;100475.03;4862073;29;20052;-82
2023/06/30 01:50:20;;;;;;;42.90;24.98;;;;;;;17.60;100.00;100479.50;4856837;29;20126;-81
2023/06/30 01:52:47;;;;;;;38.60;23.67;;;;;;;17.59;100.00;100475.16;4858629;29;20080;-83
2023/06/30 01:55:14;;;;;;;39.70;24.63;;;;;;;17.58;100.00;100473.44;4851020;29;20128;-83
2023/06/30 01:57:40;;;;;;;35.45;24.02;;;;;;;17.57;100.00;100469.06;4848750;29;20056;-85
2023/06/30 02:00:08;;;;;;;33.88;22.20;;;;;;;17.57;100.00;100471.69;4858003;29;20037;-84
2023/06/30 02:02:34;;;;;;;34.10;22.85;;;;;;;17.56;100.00;100470.84;4867818;29;20059;-84
2023/06/30 02:05:01;;;;;;;33.85;21.88;;;;;;;17.56;100.00;100467.31;4863025;29;20469;-83
2023/06/30 02:07:27;;;;;;;28.45;18.63;;;;;;;17.57;100.00;100463.75;4877406;29;20064;-81
2023/06/30 02:09:54;;;;;;;35.33;22.77;;;;;;;17.59;100.00;100464.56;4865445;29;20041;-81
2023/06/30 02:12:20;;;;;;;30.50;20.45;;;;;;;17.58;100.00;100468.13;4863539;29;20481;-81
2023/06/30 02:14:47;;;;;;;32.15;20.58;;;;;;;17.60;100.00;100463.63;4878243;29;20045;-81
2023/06/30 02:17:13;;;;;;;29.65;19.10;;;;;;;17.60;100.00;100472.44;4868300;29;20041;-81
2023/06/30 02:19:40;;;;;;;30.73;19.30;;;;;;;17.60;100.00;100466.28;4878342;29;20065;-81
2023/06/30 02:22:06;;;;;;;36.60;20.27;;;;;;;17.60;100.00;100461.84;4861516;29;20145;-83
2023/06/30 02:24:33;;;;;;;28.55;18.33;;;;;;;17.62;100.00;100461.78;4856712;29;20068;-83
2023/06/30 02:26:59;;;;;;;30.00;18.95;;;;;;;17.64;100.00;100465.25;4845934;29;20051;-81
2023/06/30 02:29:26;;;;;;;30.60;17.90;;;;;;;17.64;100.00;100465.25;4865696;29;20049;-82
2023/06/30 02:31:52;;;;;;;28.52;18.13;;;;;;;17.64;100.00;100474.03;4865170;29;20044;-85
2023/06/30 02:34:19;;;;;;;26.65;18.02;;;;;;;17.63;100.00;100468.81;4860702;29;20069;-82
2023/06/30 02:36:48;;;;;;;22.85;15.45;;;;;;;17.62;100.00;100469.72;4862759;29;20061;-84
2023/06/30 02:39:14;;;;;;;28.98;16.40;;;;;;;17.63;100.00;100469.66;4842776;29;20048;-85
2023/06/30 02:41:41;;;;;;;28.42;17.88;;;;;;;17.62;100.00;100465.28;4847086;29;20136;-84
2023/06/30 02:44:08;;;;;;;27.80;17.60;;;;;;;17.60;100.00;100464.50;4862007;29;20041;-84
2023/06/30 02:46:35;;;;;;;25.50;16.52;;;;;;;17.60;100.00;100472.44;4864345;29;20491;-83
2023/06/30 02:49:01;;;;;;;24.95;16.60;;;;;;;17.61;100.00;100468.00;4866978;29;20067;-83
2023/06/30 02:51:28;;;;;;;24.23;17.23;;;;;;;17.61;100.00;100471.53;4863873;29;20068;-83
2023/06/30 02:53:54;;;;;;;25.48;17.58;;;;;;;17.61;100.00;100470.66;4886841;29;20041;-81
2023/06/30 02:56:21;;;;;;;23.88;17.23;;;;;;;17.55;100.00;100477.06;4871879;29;20049;-82
2023/06/30 02:58:47;;;;;;;24.30;14.75;;;;;;;17.47;100.00;100469.44;4864718;29;20486;-83
2023/06/30 03:01:14;;;;;;;19.58;14.27;;;;;;;17.40;100.00;100464.44;4868317;29;20049;-81
2023/06/30 03:03:42;;;;;;;19.42;13.02;;;;;;;17.31;100.00;100468.31;4871039;29;20045;-82
2023/06/30 03:06:09;;;;;;;16.08;11.23;;;;;;;17.20;100.00;100468.75;4862170;29;20573;-83
2023/06/30 03:08:35;;;;;;;16.13;11.15;;;;;;;17.15;100.00;100460.13;4851469;29;20045;-81
2023/06/30 03:11:02;;;;;;;19.92;11.90;;;;;;;17.11;100.00;100469.97;4861583;29;20412;-82
2023/06/30 03:13:29;;;;;;;20.67;11.05;;;;;;;17.10;100.00;100464.75;4861461;29;20124;-85
2023/06/30 03:15:55;;;;;;;16.90;11.55;;;;;;;17.09;100.00;100453.31;4847837;29;20029;-83
2023/06/30 03:18:22;;;;;;;13.38;9.57;;;;;;;17.07;100.00;100457.78;4864350;29;20127;-84
2023/06/30 03:20:49;;;;;;;13.55;8.73;;;;;;;17.05;100.00;100461.41;4863156;29;20068;-84
2023/06/30 03:23:18;;;;;;;18.08;10.10;;;;;;;17.03;100.00;100470.25;4845526;29;20135;-80
2023/06/30 03:25:45;;;;;;;13.50;10.13;;;;;;;17.05;100.00;100467.56;4847332;29;20045;-82
2023/06/30 03:28:11;;;;;;;13.45;9.13;;;;;;;17.03;100.00;100469.41;4852029;29;20659;-83
2023/06/30 03:30:38;;;;;;;12.73;9.40;;;;;;;17.03;100.00;100470.25;4863206;29;20040;-85
2023/06/30 03:33:05;;;;;;;14.52;10.20;;;;;;;17.04;100.00;100479.09;4857153;29;20485;-83
2023/06/30 03:35:31;;;;;;;9.73;8.15;;;;;;;17.02;100.00;100481.75;4848693;29;20136;-82
2023/06/30 03:37:59;;;;;;;11.40;7.70;;;;;;;17.02;100.00;100475.63;4866029;29;20037;-82
2023/06/30 03:40:25;;;;;;;12.27;8.93;;;;;;;17.03;100.00;100474.72;4864937;29;20496;-85
2023/06/30 03:42:52;;;;;;;14.45;8.90;;;;;;;17.06;100.00;100482.50;4888088;29;20037;-81
2023/06/30 03:45:18;;;;;;;11.55;7.65;;;;;;;17.07;100.00;100478.94;4868655;29;20041;-82
2023/06/30 03:47:46;;;;;;;14.13;8.88;;;;;;;17.07;100.00;100476.31;4869742;29;20033;-81
2023/06/30 03:50:12;;;;;;;10.27;8.50;;;;;;;17.06;100.00;100476.38;4855833;29;20052;-84
2023/06/30 03:52:39;;;;;;;17.05;9.02;;;;;;;17.03;100.00;100464.97;4864034;29;20116;-84
2023/06/30 03:55:06;;;;;;;11.13;8.57;;;;;;;16.98;100.00;100472.22;4859070;29;20076;-83
2023/06/30 03:57:33;;;;;;;8.63;7.32;;;;;;;16.94;100.00;100473.28;4879753;29;20033;-81
2023/06/30 03:59:59;;;;;;;9.15;6.70;;;;;;;16.90;100.00;100469.03;4870596;29;20037;-86
2023/06/30 04:02:26;;;;;;;10.05;6.38;;;;;;;16.86;100.00;100475.31;4860243;29;20120;-86
2023/06/30 04:04:52;;;;;;;13.10;6.75;;;;;;;16.83;100.00;100476.31;4868412;29;20053;-87
2023/06/30 04:07:19;;;;;;;11.32;6.40;;;;;;;16.82;100.00;100471.06;4853874;29;20101;-82
2023/06/30 04:09:45;;;;;;;8.00;5.82;;;;;;;16.80;100.00;100470.25;4873167;29;20107;-83
2023/06/30 04:12:12;;;;;;;8.20;6.50;;;;;;;16.79;100.00;100473.81;4869548;29;20057;-82
2023/06/30 04:14:39;;;;;;;6.78;6.07;;;;;;;16.76;100.00;100469.50;4859417;29;20115;-83
2023/06/30 04:17:06;;;;;;;6.90;5.70;;;;;;;16.74;100.00;100475.78;4849742;29;20057;-82
2023/06/30 04:19:32;;;;;;;6.80;6.00;;;;;;;16.73;100.00;100477.56;4857690;29;20136;-81
2023/06/30 04:21:59;;;;;;;6.20;5.65;;;;;;;16.70;100.00;100478.53;4860436;29;20064;-87
2023/06/30 04:24:26;;;;;;;6.00;5.13;;;;;;;16.71;100.00;100474.09;4843589;29;20052;-83
2023/06/30 04:26:52;;;;;;;7.75;5.80;;;;;;;16.71;100.00;100474.09;4861417;29;20036;-84
2023/06/30 04:29:19;;;;;;;6.85;5.95;;;;;;;16.74;100.00;100467.84;4859015;29;20053;-83
2023/06/30 04:31:45;;;;;;;5.45;4.95;;;;;;;16.73;100.00;100464.34;4878837;29;20037;-81
2023/06/30 04:34:12;;;;;;;9.60;5.03;;;;;;;16.74;100.00;100475.78;4847199;29;20126;-82
2023/06/30 04:36:38;;;;;;;6.18;5.18;;;;;;;16.77;100.00;100468.59;4866166;29;20044;-82
2023/06/30 04:39:05;;;;;;;5.05;4.63;;;;;;;16.76;100.00;100471.31;4864197;29;20476;-82
2023/06/30 04:41:31;;;;;;;7.53;5.43;;;;;;;16.70;100.00;100465.31;4855730;29;20492;-81
2023/06/30 04:43:59;;;;;;;6.50;5.20;;;;;;;16.68;100.00;100476.88;4847302;29;20384;-82
2023/06/30 04:46:26;;;;;;;5.70;4.43;;;;;;;16.65;100.00;100487.56;4855697;29;20067;-82
2023/06/30 04:48:55;;;;;;;6.03;3.83;;;;;;;16.60;100.00;100476.31;4863289;29;20497;-82
2023/06/30 04:51:22;;;;;;;5.65;3.72;;;;;;;16.56;100.00;100491.41;4841900;29;20472;-83
2023/06/30 04:53:48;;;;;;;6.55;3.55;;;;;;;16.53;100.00;100488.84;4862033;29;20041;-82
2023/06/30 04:56:15;;;;;;;4.65;3.78;;;;;;;16.52;100.00;100497.72;4863311;29;20054;-83
2023/06/30 04:58:41;;;;;;;4.90;3.80;;;;;;;16.50;100.00;100508.34;4849771;29;20152;-82
2023/06/30 05:01:08;;;;;;;5.93;3.67;;;;;;;16.50;100.00;100513.63;4865535;29;20033;-84
2023/06/30 05:03:35;;;;;;;4.20;3.67;;;;;;;16.48;100.00;100517.25;4857373;29;20146;-82
2023/06/30 05:06:01;;;;;;;5.63;3.38;;;;;;;16.44;100.00;100523.53;4878059;29;20479;-87
2023/06/30 05:08:28;;;;;;;8.15;4.10;;;;;;;16.35;100.00;100530.88;4881270;29;20132;-82
2023/06/30 05:10:54;;;;;;;3.72;3.47;;;;;;;16.30;100.00;100526.69;4854578;29;20059;-83
2023/06/30 05:13:21;;;;;;;7.22;3.97;;;;;;;16.21;100.00;100512.00;4840997;29;20505;-81
2023/06/30 05:15:48;;;;;;;6.03;3.63;;;;;;;16.19;100.00;100490.06;4855206;29;20067;-82
2023/06/30 05:18:15;;;;;;;8.68;4.53;;;;;;;16.14;100.00;100499.91;4843838;29;20073;-82
2023/06/30 05:20:41;;;;;;;4.65;3.55;;;;;;;16.08;100.00;100505.44;4860834;29;20065;-81
2023/06/30 05:23:08;;;;;;;7.13;4.05;;;;;;;15.98;100.00;100495.19;4869578;29;20037;-81
2023/06/30 05:25:34;;;;;;;3.70;3.40;;;;;;;15.96;100.00;100480.31;4848049;29;20059;-82
2023/06/30 05:28:01;;;;;;;5.00;3.70;;;;;;;15.89;100.00;100484.91;4843818;29;20442;-88
2023/06/30 05:30:30;;;;;;;7.60;4.05;;;;;;;15.86;100.00;100488.53;4846265;29;20052;-83
2023/06/30 05:33:02;;;;;;;4.50;4.10;;;;;;;15.82;100.00;100497.47;4858773;29;20065;-88
2023/06/30 05:35:29;;;;;;;5.30;4.20;;;;;;;15.82;100.00;100491.34;4856836;29;20036;-82
2023/06/30 05:37:56;;;;;;;3.85;3.47;;;;;;;15.79;100.00;100492.25;4862201;29;20052;-82
2023/06/30 05:40:22;;;;;;;5.00;4.22;;;;;;;15.80;100.00;100496.63;4868550;29;20672;-81
2023/06/30 05:42:49;;;;;;;9.23;4.78;;;;;;;15.81;100.00;100498.41;4862449;29;20420;-81
2023/06/30 05:45:15;;;;;;;5.82;4.20;;;;;;;15.79;100.00;100497.53;4870747;29;20052;-82
2023/06/30 05:47:42;;;;;;;6.18;3.92;;;;;;;15.83;100.00;100495.72;4843831;29;20037;-81
2023/06/30 05:50:11;;;;;;;9.88;4.70;;;;;;;15.88;100.00;100493.78;4862992;29;20117;-80
2023/06/30 05:52:39;;;;;;;5.13;4.63;;;;;;;15.97;100.00;100492.56;4858086;29;20038;-81
2023/06/30 05:55:11;;;;;;;14.27;5.82;;;;;;;16.01;100.00;100495.06;4862986;29;20045;-82
2023/06/30 05:57:37;;;;;;;5.18;4.78;;;;;;;16.02;100.00;100501.22;4863436;29;20124;-81
2023/06/30 06:00:05;;;;;;;9.82;6.05;;;;;;;15.99;100.00;100515.38;4854548;29;20041;-82
2023/06/30 06:02:32;;;;;;;9.73;5.93;;;;;;;15.99;100.00;100519.81;4881077;29;20048;-84
2023/06/30 06:04:58;;;;;;;7.40;6.43;;;;;;;15.96;100.00;100509.34;4865693;29;20061;-85
2023/06/30 06:07:25;;;;;;;6.05;5.38;;;;;;;15.99;100.00;100512.72;4847823;29;20053;-81
2023/06/30 06:09:51;;;;;;;6.00;5.28;;;;;;;16.08;100.00;100516.00;4869835;29;20076;-82
2023/06/30 06:12:18;;;;;;;6.97;6.30;;;;;;;16.10;100.00;100516.78;4868573;29;20145;-83
2023/06/30 06:14:44;;;;;;;5.88;5.47;;;;;;;16.09;100.00;100512.41;4866917;29;20094;-81
2023/06/30 06:17:11;;;;;;;6.07;5.53;;;;;;;16.15;100.00;100521.03;4851337;29;21003;-82
2023/06/30 06:19:37;;;;;;;8.23;6.00;;;;;;;16.18;100.00;100515.63;4856837;29;20051;-81
2023/06/30 06:22:16;;;;;;;10.57;6.07;;;;;;;16.14;100.00;100514.00;4862725;29;20063;-81
2023/06/30 06:24:43;;;;;;;12.30;7.63;;;;;;;16.13;100.00;100525.47;4877871;29;20051;-82
2023/06/30 06:27:09;;;;;;;7.47;6.78;;;;;;;16.11;100.00;100532.56;4864352;29;20117;-81
2023/06/30 06:29:37;;;;;;;10.80;7.95;;;;;;;16.11;100.00;100524.66;4861831;29;20056;-85
2023/06/30 06:32:06;;;;;;;8.65;7.75;;;;;;;16.14;100.00;100526.31;4862605;29;20052;-82
2023/06/30 06:34:33;;;;;;;10.07;9.02;;;;;;;16.17;100.00;100527.09;4850510;29;20045;-82
2023/06/30 06:37:00;;;;;;;9.52;8.00;;;;;;;16.22;100.00;100532.22;4862886;29;20501;-83
2023/06/30 06:39:27;;;;;;;8.40;7.28;;;;;;;16.25;100.00;100536.53;4846201;29;20136;-84
2023/06/30 06:41:53;;;;;;;8.07;7.20;;;;;;;16.28;100.00;100534.66;4857971;29;20385;-83
2023/06/30 06:44:20;;;;;;;10.68;8.55;;;;;;;16.27;100.00;100530.28;4872227;29;20041;-83
2023/06/30 06:46:46;;;;;;;11.00;8.68;;;;;;;16.24;100.00;100533.03;4865387;29;20071;-82
2023/06/30 06:49:13;;;;;;;9.13;7.38;;;;;;;16.30;100.00;100527.53;4846681;29;20049;-83
2023/06/30 06:51:39;;;;;;;10.63;8.88;;;;;;;16.37;100.00;100531.69;4844982;29;20057;-83
2023/06/30 06:54:06;;;;;;;11.30;8.77;;;;;;;16.38;100.00;100533.41;4866282;29;20043;-82
2023/06/30 06:56:32;;;;;;;9.18;8.23;;;;;;;16.37;100.00;100533.47;4861424;29;20044;-84
2023/06/30 06:58:59;;;;;;;16.13;9.25;;;;;;;16.36;100.00;100523.81;4870851;29;20053;-82
2023/06/30 07:01:25;;;;;;;9.38;7.63;;;;;;;16.45;100.00;100530.56;4868232;29;20055;-81
2023/06/30 07:03:52;;;;;;;8.88;8.00;;;;;;;16.54;100.00;100519.66;4869140;29;20109;-83
2023/06/30 07:06:21;;;;;;;8.77;6.90;;;;;;;16.64;100.00;100522.84;4851721;29;20047;-83
2023/06/30 07:08:48;;;;;;;8.43;7.50;;;;;;;16.77;100.00;100525.91;4859207;29;20039;-82
2023/06/30 07:11:15;;;;;;;10.48;8.35;;;;;;;16.81;100.00;100535.44;4843916;29;20104;-84
2023/06/30 07:13:41;;;;;;;12.77;9.15;;;;;;;16.79;100.00;100530.22;4841563;29;20560;-82
2023/06/30 07:16:08;;;;;;;11.77;7.88;;;;;;;16.72;100.00;100531.34;4859163;29;20137;-81
2023/06/30 07:18:35;;;;;;;10.98;9.02;;;;;;;16.66;100.00;100540.38;4891397;29;20059;-82
2023/06/30 07:21:02;;;;;;;9.40;8.32;;;;;;;16.56;100.00;100536.31;4870188;29;20049;-82
2023/06/30 07:23:28;;;;;;;13.98;9.93;;;;;;;16.54;100.00;100541.66;4881240;29;20033;-83
2023/06/30 07:25:55;;;;;;;9.00;8.13;;;;;;;16.51;100.00;100541.75;4871250;29;20144;-82
2023/06/30 07:28:21;;;;;;;13.80;9.52;;;;;;;16.49;100.00;100546.25;4862706;29;20056;-83
2023/06/30 07:30:48;;;;;;;12.20;10.27;;;;;;;16.50;100.00;100548.00;4849205;29;20597;-82
2023/06/30 07:33:14;;;;;;;12.43;10.25;;;;;;;16.57;100.00;100545.09;4856374;29;20743;-82
2023/06/30 07:35:41;;;;;;;10.63;9.65;;;;;;;16.68;100.00;100543.78;4846463;29;20092;-84
2023/06/30 07:38:07;;;;;;;11.93;10.57;;;;;;;16.87;100.00;100549.28;4854636;29;20548;-82
2023/06/30 07:40:34;;;;;;;12.82;9.82;;;;;;;17.07;100.00;100531.00;4860160;29;20066;-84
2023/06/30 07:43:00;;;;;;;10.23;9.23;;;;;;;17.32;100.00;100536.19;4872102;29;20472;-84
2023/06/30 07:45:28;;;;;;;12.02;9.52;;;;;;;17.60;100.00;100535.09;4866913;29;20041;-81
2023/06/30 07:47:55;;;;;;;15.45;11.35;;;;;;;17.86;100.00;100523.47;4837912;29;20042;-82
2023/06/30 07:50:21;;;;;;;11.82;10.68;;;;;;;17.98;100.00;100536.22;4862666;29;20057;-82
2023/06/30 07:52:49;;;;;;;11.75;10.52;;;;;;;18.05;100.00;100538.59;4840545;29;20116;-81
2023/06/30 07:55:18;;;;;;;13.05;9.55;;;;;;;18.01;100.00;100551.97;4857875;29;20049;-83
2023/06/30 07:57:48;;;;;;;11.55;10.27;;;;;;;18.06;100.00;100546.50;4857661;29;20049;-84
2023/06/30 08:00:18;;;;;;;11.65;9.95;;;;;;;18.15;100.00;100539.94;4860467;29;20101;-81
2023/06/30 08:02:45;;;;;;;11.23;9.85;;;;;;;18.28;100.00;100541.13;4862699;29;20069;-81
2023/06/30 08:05:12;;;;;;;12.32;8.98;;;;;;;18.38;100.00;100554.00;4872173;29;20045;-81
2023/06/30 08:07:39;;;;;;;12.65;8.80;;;;;;;18.36;100.00;100548.75;4834779;29;20534;-81
2023/06/30 08:10:06;;;;;;;9.23;8.20;;;;;;;18.55;100.00;100546.19;4861780;29;20048;-83
2023/06/30 08:12:33;;;;;;;10.70;9.23;;;;;;;18.85;100.00;100546.59;4891884;29;20045;-82
2023/06/30 08:14:59;;;;;;;9.00;7.78;;;;;;;18.99;100.00;100548.66;4854697;29;20088;-81
2023/06/30 08:17:26;;;;;;;11.07;8.25;;;;;;;19.22;100.00;100546.72;4884274;29;20485;-81
2023/06/30 08:19:53;;;;;;;7.88;6.90;;;;;;;19.31;98.30;100556.91;4861078;29;20051;-82
2023/06/30 08:22:21;;;;;;;8.23;7.53;;;;;;;19.23;98.71;100550.22;4883275;29;20131;-82
2023/06/30 08:24:48;;;;;;;10.13;8.07;;;;;;;19.08;98.07;100551.81;4877596;29;20127;-82
2023/06/30 08:27:17;;;;;;;8.20;7.40;;;;;;;18.89;99.40;100544.69;4875193;29;20041;-82
2023/06/30 08:29:44;;;;;;;7.10;6.50;;;;;;;18.76;99.97;100547.00;4867184;29;20450;-83
2023/06/30 08:32:11;;;;;;;8.10;7.35;;;;;;;18.65;100.00;100549.28;4854727;29;20132;-82
2023/06/30 08:34:38;;;;;;;7.88;7.03;;;;;;;18.52;100.00;100554.25;4882224;29;20134;-81
2023/06/30 08:37:06;;;;;;;8.20;6.82;;;;;;;18.46;100.00;100555.38;4862983;29;20056;-81
2023/06/30 08:39:33;;;;;;;8.52;7.28;;;;;;;18.44;100.00;100557.22;4850435;29;20051;-81
2023/06/30 08:42:01;;;;;;;8.32;7.53;;;;;;;18.38;100.00;100565.44;4869819;29;20119;-82
2023/06/30 08:44:28;;;;;;;7.50;6.68;;;;;;;18.21;100.00;100568.81;4866750;29;20049;-82
2023/06/30 08:46:57;;;;;;;7.28;6.68;;;;;;;18.02;100.00;100568.72;4863086;29;20123;-81
2023/06/30 08:49:26;;;;;;;8.10;6.90;;;;;;;17.89;100.00;100570.13;4864997;29;20846;-83
2023/06/30 08:51:57;;;;;;;7.68;6.22;;;;;;;17.76;100.00;100572.41;4864117;29;20049;-82
2023/06/30 08:54:28;;;;;;;7.50;6.35;;;;;;;17.69;100.00;100577.06;4868974;29;20519;-82
2023/06/30 08:56:55;;;;;;;7.72;6.88;;;;;;;17.75;100.00;100579.47;4850803;29;20139;-86
2023/06/30 08:59:22;;;;;;;6.85;6.15;;;;;;;17.82;100.00;100567.72;4849107;29;20053;-82
2023/06/30 09:01:49;;;;;;;6.07;5.47;;;;;;;17.92;100.00;100570.84;4848873;29;20043;-83
2023/06/30 09:04:16;;;;;;;6.70;5.95;;;;;;;18.08;100.00;100557.91;4849384;29;20104;-83
2023/06/30 09:06:48;;;;;;;9.55;5.82;;;;;;;18.24;100.00;100549.28;4867336;29;20052;-82
2023/06/30 09:09:46;;;;;;;8.98;5.57;;;;;;;18.51;99.03;100556.06;4864745;29;20105;-82
2023/06/30 09:12:13;;;;;;;6.93;5.60;;;;;;;18.66;97.91;100553.66;4848584;29;20049;-82
2023/06/30 09:14:44;;;;;;;8.35;5.25;;;;;;;18.76;97.70;100552.31;4862926;29;20041;-82
2023/06/30 09:17:10;;;;;;;6.53;5.93;;;;;;;18.78;97.31;100555.75;4885537;29;20037;-83
2023/06/30 09:19:37;;;;;;;7.65;6.68;;;;;;;18.63;98.25;100557.28;4865811;29;20064;-82
2023/06/30 09:22:07;;;;;;;9.38;6.15;;;;;;;18.44;99.23;100559.88;4866342;29;20049;-83
2023/06/30 09:24:33;;;;;;;10.98;6.97;;;;;;;18.29;100.00;100560.53;4845972;29;20059;-82
2023/06/30 09:27:02;;;;;;;7.47;6.78;;;;;;;18.02;100.00;100558.13;4844514;29;20148;-83
2023/06/30 09:29:34;;;;;;;8.82;7.20;;;;;;;18.01;100.00;100554.59;4865689;29;20045;-89
2023/06/30 09:32:02;;;;;;;9.15;5.90;;;;;;;18.07;100.00;100550.88;4854883;29;20041;-82
2023/06/30 09:34:29;;;;;;;7.75;7.00;;;;;;;18.19;100.00;100554.78;4859932;29;21060;-86
2023/06/30 09:36:56;;;;;;;8.20;7.43;;;;;;;18.32;100.00;100555.13;4864446;29;20581;-92
2023/06/30 09:39:24;;;;;;;7.88;7.07;;;;;;;18.44;100.00;100548.44;4864865;29;20041;-83
2023/06/30 09:41:52;;;;;;;9.13;7.60;;;;;;;18.71;100.00;100556.06;4852656;29;20422;-82
2023/06/30 09:44:20;;;;;;;8.88;7.88;;;;;;;19.06;100.00;100551.88;4881825;29;20120;-83
2023/06/30 09:46:49;;;;;;;7.20;6.47;;;;;;;19.36;96.96;100548.72;4844735;29;20064;-83
2023/06/30 09:49:30;;;;;;;6.53;5.90;;;;;;;19.92;93.09;100548.72;4869024;29;20044;-83
2023/06/30 09:52:03;;;;;;;7.05;5.57;;;;;;;21.15;88.51;100544.97;4868141;29;20105;-89
2023/06/30 09:54:30;;;;;;;;;;;;;;;22.14;80.72;100538.56;4862885;29;20040;-87
2023/06/30 09:56:59;;;;;;;7.03;5.53;;;;;;;22.69;80.93;100546.88;4870031;29;19930;-84
2023/06/30 09:59:27;;;;;;;5.57;4.55;;;;;;;22.70;78.08;100543.25;4849654;29;20137;-84
2023/06/30 10:01:55;;;;;;;5.88;4.90;;;;;;;22.11;79.67;100544.03;4864086;29;20076;-84
2023/06/30 10:04:22;;;;;;;11.73;5.05;;;;;;;21.42;80.88;100539.06;4861914;29;20133;-83
2023/06/30 10:06:52;;;;;;;4.68;4.30;;;;;;;21.15;82.06;100541.47;4846423;29;20081;-82
2023/06/30 10:09:24;;;;;;;4.68;4.28;;;;;;;20.96;82.54;100545.16;4862349;29;20048;-83
2023/06/30 10:11:58;;;;;;;7.03;4.75;;;;;;;20.81;82.62;100548.63;4867775;29;20047;-86
2023/06/30 10:14:31;;;;;;;6.10;4.75;;;;;;;20.57;82.46;100556.06;4864613;29;20060;-83
2023/06/30 10:17:01;;;;;;;6.63;5.43;;;;;;;20.35;84.46;100548.34;4863463;29;20037;-85
2023/06/30 10:19:30;;;;;;;4.95;4.45;;;;;;;20.29;84.98;100547.72;4863572;29;20057;-90
2023/06/30 10:21:58;;;;;;;9.77;5.15;;;;;;;20.20;84.44;100552.66;4876521;29;20128;-87
2023/06/30 10:24:28;;;;;;;6.18;5.60;;;;;;;20.06;85.25;100545.38;4855242;29;20132;-82
2023/06/30 10:26:55;;;;;;;5.57;5.07;;;;;;;19.74;86.71;100547.81;4865843;29;20949;-80
2023/06/30 10:29:22;;;;;;;5.82;5.40;;;;;;;19.51;88.46;100540.00;4854470;29;20053;-83
2023/06/30 10:31:50;;;;;;;5.55;5.03;;;;;;;19.41;88.35;100541.41;4846289;29;20057;-81
2023/06/30 10:34:18;;;;;;;12.35;5.90;;;;;;;19.47;88.49;100542.91;4861851;29;20411;-82
2023/06/30 10:36:45;;;;;;;8.82;4.85;;;;;;;20.00;87.56;100538.59;4862020;29;20777;-82
2023/06/30 10:39:12;;;;;;;5.40;4.85;;;;;;;20.42;85.68;100536.47;4863401;29;20453;-85
2023/06/30 10:41:49;;;;;;;6.38;5.25;;;;;;;21.04;81.48;100536.75;4864687;29;20064;-82
2023/06/30 10:44:19;;;;;;;6.10;4.20;;;;;;;21.34;79.40;100540.44;4859899;29;20057;-81
2023/06/30 10:46:49;;;;;;;4.00;3.70;;;;;;;21.44;79.32;100531.00;4854277;29;20049;-84
2023/06/30 10:49:17;;;;;;;5.57;4.03;;;;;;;21.55;78.61;100533.06;4866202;29;20480;-82
2023/06/30 10:51:54;;;;;;;6.57;4.55;;;;;;;21.37;78.24;100535.81;4868828;29;20056;-86
2023/06/30 10:54:23;;;;;;;4.35;3.90;;;;;;;20.93;80.22;100539.13;4864389;29;20390;-82
2023/06/30 10:56:51;;;;;;;5.47;3.90;;;;;;;20.30;82.27;100536.16;4856091;29;20045;-82
2023/06/30 10:59:23;;;;;;;5.18;4.00;;;;;;;19.66;85.27;100535.75;4882280;29;20045;-84
2023/06/30 11:02:18;;;;;;;6.90;4.75;;;;;;;19.15;88.22;100538.19;4860741;29;20044;-82
2023/06/30 11:04:47;;;;;;;7.13;4.07;;;;;;;18.85;89.61;100535.97;4864543;29;20129;-81
2023/06/30 11:07:18;;;;;;;4.70;4.35;;;;;;;18.70;91.29;100539.31;4872305;29;20116;-81
2023/06/30 11:09:48;;;;;;;7.35;5.63;;;;;;;17.89;100.00;100538.38;4874824;29;20052;-82
2023/06/30 11:12:19;;;;;;;9.13;5.70;;;;;;;16.78;100.00;100549.63;4884615;29;20246;-82
2023/06/30 11:15:03;;;;;;;6.82;6.13;;;;;;;16.32;100.00;100548.59;4877929;29;20056;-82